^^

..:: Storico WU ::..




Lo storico viene creato da WUnderground con i dati che la stazione Meteomincio invia al loro server. L' aggiornamento viene fatto ogni 5 minuti circa, tuttavia possono esserci intervalli pił ampi a causa di errori, interruzioni di servizio o problemi nell' invio tramite FTP.


Storico stazione MeteoMincio
Giorno Sommario per Maggio 23, 2022 Unità:  Inglese    Metrico   Entrambi
Giorno Settimana Mese Anno
  Max: Min: Media:
Temperatura: 87.8 °F 69.8 °F 77.7 °F
Dew Point: 71.6 °F 57.2 °F 65.5 °F
Umidità: 86% 41% 68%
Velocità vento: 8.7mph 0mph 4mph
Raffica: 13mph - -
Direzione- - SSE
Pressione: 29.8 in 29.6 in -
Precipitazioni: 0 in    
 
 
Tabulato Dati per Maggio 23, 2022
Ora Temperatura Dew Point Pressione Direzione Velocità vento Raffica Umidità Intensità pioggia (oraria) Info solare Situazione
00:04 75.2 °F 68 °F 29.8 in East 6.8 mph 9.3 mph 77% 0 in 0.00 W/m2 unknown
00:09 75.2 °F 68 °F 29.8 in East 6.2 mph 8.7 mph 78% 0 in 0.00 W/m2 unknown
00:14 75.2 °F 68 °F 29.8 in ESE 5.6 mph 6.8 mph 78% 0 in 0.00 W/m2 unknown
00:19 75.2 °F 68 °F 29.8 in ESE 5 mph 6.8 mph 78% 0 in 0.00 W/m2 unknown
00:24 75.2 °F 68 °F 29.8 in SE 3.7 mph 5 mph 78% 0 in 0.00 W/m2 unknown
00:29 75.2 °F 68 °F 29.8 in SSW 5.6 mph 8.1 mph 77% 0 in 0.00 W/m2 unknown
00:34 75.2 °F 68 °F 29.8 in SW 5.6 mph 8.1 mph 77% 0 in 0.00 W/m2 unknown
00:39 75.2 °F 68 °F 29.8 in SSW 5 mph 8.1 mph 78% 0 in 0.00 W/m2 unknown
00:44 75.2 °F 68 °F 29.8 in SSW 3.7 mph 5 mph 78% 0 in 0.00 W/m2 unknown
00:49 75.2 °F 68 °F 29.8 in SW 2.5 mph 5 mph 78% 0 in 0.00 W/m2 unknown
00:54 75.2 °F 68 °F 29.8 in WSW 2.5 mph 3.7 mph 78% 0 in 0.00 W/m2 unknown
00:59 75.2 °F 68 °F 29.8 in SW 3.7 mph 5 mph 78% 0 in 0.00 W/m2 unknown
01:04 75.2 °F 68 °F 29.8 in West 8.7 mph 11.8 mph 79% 0 in 0.00 W/m2 unknown
01:09 75.2 °F 68 °F 29.8 in WSW 8.7 mph 11.8 mph 79% 0 in 0.00 W/m2 unknown
01:14 73.4 °F 68 °F 29.8 in West 8.1 mph 11.8 mph 79% 0 in 0.00 W/m2 unknown
01:19 73.4 °F 68 °F 29.8 in West 6.8 mph 10.6 mph 79% 0 in 0.00 W/m2 unknown
01:24 73.4 °F 68 °F 29.8 in West 8.1 mph 11.8 mph 79% 0 in 0.00 W/m2 unknown
01:29 73.4 °F 66.2 °F 29.8 in WNW 8.1 mph 10.6 mph 78% 0 in 0.00 W/m2 unknown
01:34 73.4 °F 66.2 °F 29.8 in WNW 8.1 mph 10.6 mph 78% 0 in 0.00 W/m2 unknown
01:39 73.4 °F 66.2 °F 29.8 in WNW 8.1 mph 10.6 mph 77% 0 in 0.00 W/m2 unknown
01:44 73.4 °F 66.2 °F 29.8 in WNW 5.6 mph 6.8 mph 77% 0 in 0.00 W/m2 unknown
01:49 73.4 °F 66.2 °F 29.8 in WSW 3.1 mph 6.8 mph 77% 0 in 0.00 W/m2 unknown
01:54 73.4 °F 66.2 °F 29.8 in West 3.1 mph 3.7 mph 78% 0 in 0.00 W/m2 unknown
01:59 73.4 °F 66.2 °F 29.8 in WNW 5.6 mph 6.8 mph 78% 0 in 0.00 W/m2 unknown
02:04 73.4 °F 66.2 °F 29.8 in West 5.6 mph 6.8 mph 78% 0 in 0.00 W/m2 unknown
02:09 73.4 °F 66.2 °F 29.8 in WNW 5.6 mph 6.8 mph 78% 0 in 0.00 W/m2 unknown
02:14 73.4 °F 66.2 °F 29.8 in West 5 mph 6.8 mph 78% 0 in 0.00 W/m2 unknown
02:19 73.4 °F 66.2 °F 29.8 in West 5 mph 6.2 mph 78% 0 in 0.00 W/m2 unknown
02:24 73.4 °F 66.2 °F 29.8 in West 3.1 mph 5 mph 79% 0 in 0.00 W/m2 unknown
02:29 71.6 °F 66.2 °F 29.8 in West 3.7 mph 3.7 mph 80% 0 in 0.00 W/m2 unknown
02:34 71.6 °F 66.2 °F 29.8 in West 3.7 mph 5 mph 80% 0 in 0.00 W/m2 unknown
02:39 71.6 °F 66.2 °F 29.8 in West 3.7 mph 5 mph 80% 0 in 0.00 W/m2 unknown
02:44 71.6 °F 66.2 °F 29.8 in WNW 2.5 mph 3.7 mph 80% 0 in 0.00 W/m2 unknown
02:49 71.6 °F 66.2 °F 29.8 in NW 2.5 mph 3.7 mph 80% 0 in 0.00 W/m2 unknown
02:54 71.6 °F 66.2 °F 29.8 in NW 3.1 mph 3.7 mph 80% 0 in 0.00 W/m2 unknown
02:59 71.6 °F 64.4 °F 29.8 in NW 3.1 mph 5 mph 80% 0 in 0.00 W/m2 unknown
03:04 71.6 °F 64.4 °F 29.8 in NW 3.7 mph 5 mph 80% 0 in 0.00 W/m2 unknown
03:09 71.6 °F 64.4 °F 29.8 in NW 3.7 mph 5 mph 80% 0 in 0.00 W/m2 unknown
03:14 71.6 °F 64.4 °F 29.8 in NW 3.1 mph 5 mph 80% 0 in 0.00 W/m2 unknown
03:19 71.6 °F 64.4 °F 29.8 in NW 3.1 mph 5 mph 79% 0 in 0.00 W/m2 unknown
03:24 71.6 °F 64.4 °F 29.8 in NW 2.5 mph 3.7 mph 80% 0 in 0.00 W/m2 unknown
03:29 71.6 °F 64.4 °F 29.8 in NNW 1.2 mph 3.7 mph 80% 0 in 0.00 W/m2 unknown
03:34 71.6 °F 64.4 °F 29.8 in NW 1.9 mph 3.7 mph 81% 0 in 0.00 W/m2 unknown
03:39 71.6 °F 64.4 °F 29.8 in NW 2.5 mph 3.7 mph 80% 0 in 0.00 W/m2 unknown
03:44 71.6 °F 64.4 °F 29.8 in NW 1.9 mph 3.7 mph 80% 0 in 0.00 W/m2 unknown
03:49 71.6 °F 64.4 °F 29.8 in NNW 1.9 mph 3.7 mph 81% 0 in 0.00 W/m2 unknown
03:54 71.6 °F 64.4 °F 29.8 in NNW 1.9 mph 3.7 mph 82% 0 in 0.00 W/m2 unknown
03:59 69.8 °F 64.4 °F 29.8 in NNE 3.1 mph 5 mph 82% 0 in 0.00 W/m2 unknown
04:04 69.8 °F 64.4 °F 29.8 in NE 3.1 mph 5 mph 82% 0 in 0.00 W/m2 unknown
04:09 69.8 °F 64.4 °F 29.8 in NNE 2.5 mph 5 mph 83% 0 in 0.00 W/m2 unknown
04:14 69.8 °F 64.4 °F 29.8 in NNW 1.2 mph 3.7 mph 82% 0 in 0.00 W/m2 unknown
04:19 69.8 °F 64.4 °F 29.8 in North 1.2 mph 3.1 mph 83% 0 in 0.00 W/m2 unknown
04:24 69.8 °F 64.4 °F 29.8 in NNE 1.9 mph 3.7 mph 83% 0 in 0.00 W/m2 unknown
04:29 69.8 °F 64.4 °F 29.8 in NNE 1.9 mph 3.7 mph 83% 0 in 0.00 W/m2 unknown
04:34 69.8 °F 64.4 °F 29.8 in NE 3.1 mph 3.7 mph 83% 0 in 0.00 W/m2 unknown
04:39 69.8 °F 64.4 °F 29.8 in NE 2.5 mph 3.7 mph 83% 0 in 0.00 W/m2 unknown
04:44 69.8 °F 64.4 °F 29.8 in NNE 2.5 mph 3.7 mph 83% 0 in 0.00 W/m2 unknown
04:49 69.8 °F 64.4 °F 29.8 in NE 2.5 mph 3.7 mph 83% 0 in 0.00 W/m2 unknown
04:54 69.8 °F 64.4 °F 29.8 in NE 1.9 mph 3.7 mph 83% 0 in 0.00 W/m2 unknown
04:59 69.8 °F 64.4 °F 29.8 in NE 0.6 mph 3.1 mph 83% 0 in 0.00 W/m2 unknown
05:04 69.8 °F 64.4 °F 29.8 in NNE 1.2 mph 2.5 mph 83% 0 in 0.00 W/m2 unknown
05:09 69.8 °F 64.4 °F 29.8 in North 1.9 mph 3.1 mph 83% 0 in 0.00 W/m2 unknown
05:14 69.8 °F 64.4 °F 29.8 in NNE 1.9 mph 3.7 mph 83% 0 in 0.00 W/m2 unknown
05:19 69.8 °F 64.4 °F 29.8 in NNE 3.1 mph 6.2 mph 83% 0 in 0.00 W/m2 unknown
05:24 69.8 °F 64.4 °F 29.8 in WSW 5.6 mph 6.8 mph 85% 0 in 0.00 W/m2 unknown
05:29 69.8 °F 64.4 °F 29.8 in West 5 mph 6.8 mph 86% 0 in 0.00 W/m2 unknown
05:34 69.8 °F 64.4 °F 29.8 in WNW 3.7 mph 6.8 mph 86% 0 in 0.00 W/m2 unknown
05:39 69.8 °F 64.4 °F 29.8 in West 3.7 mph 5 mph 86% 0 in 0.00 W/m2 unknown
05:44 69.8 °F 64.4 °F 29.8 in WNW 5 mph 6.8 mph 86% 0 in 0.00 W/m2 unknown
05:49 69.8 °F 64.4 °F 29.8 in WNW 5 mph 6.8 mph 86% 0 in 0.00 W/m2 unknown
05:54 69.8 °F 64.4 °F 29.8 in West 3.7 mph 5 mph 85% 0 in 5.00 W/m2 unknown
05:59 69.8 °F 64.4 °F 29.8 in WNW 3.1 mph 5 mph 85% 0 in 7.00 W/m2 unknown
06:04 69.8 °F 64.4 °F 29.8 in West 1.9 mph 3.7 mph 85% 0 in 9.00 W/m2 unknown
06:09 69.8 °F 64.4 °F 29.8 in Calm   3.1 mph 85% 0 in 12.00 W/m2 unknown
06:14 69.8 °F 64.4 °F 29.8 in West 1.2 mph 1.9 mph 85% 0 in 14.00 W/m2 unknown
06:19 69.8 °F 64.4 °F 29.8 in West 1.2 mph 2.5 mph 85% 0 in 18.00 W/m2 unknown
06:24 69.8 °F 64.4 °F 29.8 in Calm   1.9 mph 85% 0 in 19.00 W/m2 unknown
06:29 69.8 °F 64.4 °F 29.8 in WNW 3.7 mph 6.2 mph 85% 0 in 23.00 W/m2 unknown
06:34 69.8 °F 64.4 °F 29.8 in WNW 4.3 mph 6.2 mph 85% 0 in 28.00 W/m2 unknown
06:39 69.8 °F 64.4 °F 29.8 in WNW 3.1 mph 4.3 mph 86% 0 in 35.00 W/m2 unknown
06:44 69.8 °F 64.4 °F 29.8 in WNW 1.2 mph 3.1 mph 86% 0 in 44.00 W/m2 unknown
06:49 69.8 °F 64.4 °F 29.8 in Calm   1.9 mph 86% 0 in 54.00 W/m2 unknown
06:54 69.8 °F 64.4 °F 29.8 in Calm   1.2 mph 86% 0 in 65.00 W/m2 unknown
06:59 69.8 °F 64.4 °F 29.8 in NW 1.9 mph 3.7 mph 86% 0 in 77.00 W/m2 unknown
07:04 69.8 °F 66.2 °F 29.8 in NNW 2.5 mph 3.7 mph 86% 0 in 86.00 W/m2 unknown
07:09 69.8 °F 66.2 °F 29.8 in NNW 2.5 mph 3.7 mph 86% 0 in 102.00 W/m2 unknown
07:14 71.6 °F 66.2 °F 29.8 in North 1.2 mph 3.1 mph 85% 0 in 114.00 W/m2 unknown
07:19 71.6 °F 66.2 °F 29.8 in East 1.9 mph 2.5 mph 85% 0 in 130.00 W/m2 unknown
07:24 71.6 °F 66.2 °F 29.8 in East 1.9 mph 3.7 mph 84% 0 in 139.00 W/m2 unknown
07:29 71.6 °F 66.2 °F 29.8 in ESE 1.9 mph 3.7 mph 84% 0 in 153.00 W/m2 unknown
07:34 71.6 °F 66.2 °F 29.8 in ESE 1.2 mph 1.9 mph 85% 0 in 167.00 W/m2 unknown
07:39 71.6 °F 66.2 °F 29.8 in SE 0.6 mph 1.2 mph 85% 0 in 181.00 W/m2 unknown
07:44 71.6 °F 66.2 °F 29.8 in South 1.2 mph 2.5 mph 85% 0 in 197.00 W/m2 unknown
07:49 71.6 °F 66.2 °F 29.8 in SSW 1.2 mph 1.9 mph 85% 0 in 209.00 W/m2 unknown
07:54 73.4 °F 66.2 °F 29.8 in SSW 2.5 mph 3.7 mph 84% 0 in 220.00 W/m2 unknown
07:59 73.4 °F 68 °F 29.8 in SSW 2.5 mph 3.7 mph 83% 0 in 239.00 W/m2 unknown
08:04 73.4 °F 68 °F 29.8 in SSW 2.5 mph 3.7 mph 83% 0 in 250.00 W/m2 unknown
08:09 73.4 °F 68 °F 29.8 in SW 2.5 mph 3.7 mph 82% 0 in 258.00 W/m2 unknown
08:14 73.4 °F 68 °F 29.8 in SW 1.9 mph 3.7 mph 81% 0 in 258.00 W/m2 unknown
08:19 73.4 °F 68 °F 29.8 in South 2.5 mph 3.7 mph 80% 0 in 276.00 W/m2 unknown
08:24 73.4 °F 66.2 °F 29.8 in South 1.9 mph 3.7 mph 79% 0 in 283.00 W/m2 unknown
08:29 75.2 °F 68 °F 29.8 in SE 3.1 mph 5 mph 79% 0 in 283.00 W/m2 unknown
08:34 75.2 °F 68 °F 29.8 in SE 3.1 mph 5 mph 78% 0 in 295.00 W/m2 unknown
08:39 75.2 °F 68 °F 29.8 in ESE 3.1 mph 5 mph 79% 0 in 287.00 W/m2 unknown
08:44 75.2 °F 68 °F 29.8 in ESE 3.7 mph 6.2 mph 79% 0 in 301.00 W/m2 unknown
08:49 75.2 °F 68 °F 29.8 in East 3.7 mph 6.8 mph 78% 0 in 308.00 W/m2 unknown
08:54 75.2 °F 68 °F 29.8 in East 3.7 mph 6.8 mph 78% 0 in 236.00 W/m2 unknown
08:59 75.2 °F 68 °F 29.8 in ESE 3.1 mph 6.8 mph 78% 0 in 343.00 W/m2 unknown
09:04 75.2 °F 68 °F 29.8 in South 2.5 mph 3.7 mph 77% 0 in 373.00 W/m2 unknown
09:09 75.2 °F 68 °F 29.8 in ESE 3.1 mph 5 mph 77% 0 in 404.00 W/m2 unknown
09:14 75.2 °F 68 °F 29.8 in ESE 4.3 mph 6.8 mph 77% 0 in 427.00 W/m2 unknown
09:19 75.2 °F 68 °F 29.8 in SE 3.7 mph 6.8 mph 76% 0 in 432.00 W/m2 unknown
09:24 77 °F 68 °F 29.8 in SE 2.5 mph 5 mph 76% 0 in 424.00 W/m2 unknown
09:29 77 °F 68 °F 29.8 in East 4.3 mph 6.2 mph 76% 0 in 417.00 W/m2 unknown
09:34 77 °F 68 °F 29.8 in ESE 4.3 mph 6.2 mph 76% 0 in 455.00 W/m2 unknown
09:39 77 °F 68 °F 29.8 in ESE 3.1 mph 5 mph 77% 0 in 468.00 W/m2 unknown
09:44 77 °F 68 °F 29.8 in ESE 2.5 mph 3.7 mph 77% 0 in 492.00 W/m2 unknown
09:49 77 °F 68 °F 29.8 in SSE 3.1 mph 3.7 mph 76% 0 in 506.00 W/m2 unknown
09:54 78.8 °F 69.8 °F 29.8 in ENE 5.6 mph 6.8 mph 76% 0 in 522.00 W/m2 unknown
09:59 78.8 °F 69.8 °F 29.8 in ENE 6.8 mph 8.1 mph 74% 0 in 540.00 W/m2 unknown
10:04 78.8 °F 68 °F 29.8 in ENE 6.2 mph 8.1 mph 73% 0 in 540.00 W/m2 unknown
10:09 77 °F 68 °F 29.8 in East 6.2 mph 9.3 mph 74% 0 in 534.00 W/m2 unknown
10:14 78.8 °F 68 °F 29.8 in East 6.2 mph 9.3 mph 74% 0 in 531.00 W/m2 unknown
10:19 77 °F 68 °F 29.8 in East 5.6 mph 8.7 mph 73% 0 in 548.00 W/m2 unknown
10:24 77 °F 68 °F 29.8 in ENE 5 mph 8.1 mph 73% 0 in 568.00 W/m2 unknown
10:29 77 °F 68 °F 29.8 in ENE 4.3 mph 6.8 mph 74% 0 in 603.00 W/m2 unknown
10:34 78.8 °F 68 °F 29.8 in NE 2.5 mph 6.8 mph 74% 0 in 622.00 W/m2 unknown
10:39 78.8 °F 69.8 °F 29.8 in NE 3.1 mph 5 mph 73% 0 in 642.00 W/m2 unknown
10:44 78.8 °F 69.8 °F 29.8 in ESE 3.1 mph 5 mph 73% 0 in 636.00 W/m2 unknown
10:49 78.8 °F 69.8 °F 29.8 in ESE 5 mph 9.3 mph 73% 0 in 636.00 W/m2 unknown
10:54 78.8 °F 69.8 °F 29.8 in ESE 5 mph 9.3 mph 72% 0 in 624.00 W/m2 unknown
10:59 78.8 °F 69.8 °F 29.8 in ENE 4.3 mph 6.8 mph 72% 0 in 698.00 W/m2 unknown
11:04 78.8 °F 69.8 °F 29.8 in NE 5 mph 6.8 mph 72% 0 in 698.00 W/m2 unknown
11:09 78.8 °F 69.8 °F 29.8 in NNE 5 mph 6.8 mph 72% 0 in 717.00 W/m2 unknown
11:14 78.8 °F 69.8 °F 29.8 in ESE 5.6 mph 6.8 mph 72% 0 in 717.00 W/m2 unknown
11:19 78.8 °F 69.8 °F 29.8 in ESE 5.6 mph 8.1 mph 71% 0 in 650.00 W/m2 unknown
11:24 78.8 °F 69.8 °F 29.8 in East 6.2 mph 8.1 mph 72% 0 in 701.00 W/m2 unknown
11:29 80.6 °F 69.8 °F 29.8 in ESE 2.5 mph 6.8 mph 71% 0 in 710.00 W/m2 unknown
11:34 80.6 °F 69.8 °F 29.8 in ESE 5.6 mph 6.8 mph 72% 0 in 770.00 W/m2 unknown
11:39 80.6 °F 69.8 °F 29.8 in ESE 5 mph 6.8 mph 70% 0 in 779.00 W/m2 unknown
11:44 80.6 °F 69.8 °F 29.8 in East 5.6 mph 8.1 mph 71% 0 in 761.00 W/m2 unknown
11:49 80.6 °F 69.8 °F 29.7 in ENE 6.2 mph 8.1 mph 70% 0 in 782.00 W/m2 unknown
11:54 80.6 °F 69.8 °F 29.7 in East 5.6 mph 9.3 mph 69% 0 in 819.00 W/m2 unknown
11:59 80.6 °F 69.8 °F 29.7 in East 6.2 mph 9.3 mph 69% 0 in 846.00 W/m2 unknown
12:04 80.6 °F 69.8 °F 29.7 in ESE 6.2 mph 9.3 mph 67% 0 in 817.00 W/m2 unknown
12:09 80.6 °F 69.8 °F 29.7 in East 5 mph 8.1 mph 69% 0 in 724.00 W/m2 unknown
12:14 80.6 °F 69.8 °F 29.7 in ESE 5.6 mph 8.1 mph 70% 0 in 526.00 W/m2 unknown
12:19 80.6 °F 69.8 °F 29.7 in ESE 5.6 mph 8.1 mph 70% 0 in 547.00 W/m2 unknown
12:24 80.6 °F 69.8 °F 29.7 in East 5 mph 6.8 mph 71% 0 in 547.00 W/m2 unknown
12:29 80.6 °F 69.8 °F 29.7 in NNE 3.7 mph 6.8 mph 72% 0 in 534.00 W/m2 unknown
12:34 80.6 °F 71.6 °F 29.7 in ENE 5.6 mph 8.1 mph 71% 0 in 795.00 W/m2 unknown
12:39 82.4 °F 71.6 °F 29.7 in ENE 6.2 mph 8.1 mph 71% 0 in 842.00 W/m2 unknown
12:44 82.4 °F 69.8 °F 29.7 in ENE 5.6 mph 8.1 mph 70% 0 in 824.00 W/m2 unknown
12:49 82.4 °F 69.8 °F 29.7 in East 5.6 mph 8.1 mph 69% 0 in 844.00 W/m2 unknown
12:54 82.4 °F 69.8 °F 29.7 in ESE 4.3 mph 10.6 mph 68% 0 in 851.00 W/m2 unknown
12:59 82.4 °F 71.6 °F 29.7 in East 4.3 mph 9.9 mph 69% 0 in 840.00 W/m2 unknown
13:04 82.4 °F 71.6 °F 29.7 in NE 5 mph 6.8 mph 69% 0 in 879.00 W/m2 unknown
13:09 82.4 °F 71.6 °F 29.7 in East 6.2 mph 10.6 mph 67% 0 in 860.00 W/m2 unknown
13:14 82.4 °F 69.8 °F 29.7 in ESE 6.2 mph 9.9 mph 68% 0 in 895.00 W/m2 unknown
13:19 82.4 °F 69.8 °F 29.7 in SE 5 mph 8.7 mph 68% 0 in 884.00 W/m2 unknown
13:24 82.4 °F 69.8 °F 29.7 in SSE 3.7 mph 6.2 mph 69% 0 in 336.00 W/m2 unknown
13:29 82.4 °F 71.6 °F 29.7 in ENE 2.5 mph 6.2 mph 71% 0 in 861.00 W/m2 unknown
13:34 84.2 °F 71.6 °F 29.7 in ESE 5 mph 6.8 mph 71% 0 in 879.00 W/m2 unknown
13:39 84.2 °F 71.6 °F 29.7 in East 5 mph 6.8 mph 67% 0 in 742.00 W/m2 unknown
13:44 82.4 °F 69.8 °F 29.7 in ESE 4.3 mph 6.8 mph 68% 0 in 835.00 W/m2 unknown
13:49 82.4 °F 69.8 °F 29.7 in SE 5 mph 6.8 mph 67% 0 in 842.00 W/m2 unknown
13:54 82.4 °F 69.8 °F 29.7 in SE 5 mph 6.8 mph 68% 0 in 888.00 W/m2 unknown
13:59 82.4 °F 69.8 °F 29.7 in East 5 mph 6.8 mph 68% 0 in 888.00 W/m2 unknown
14:04 82.4 °F 71.6 °F 29.7 in East 4.3 mph 8.1 mph 68% 0 in 789.00 W/m2 unknown
14:09 82.4 °F 69.8 °F 29.7 in ENE 3.7 mph 8.1 mph 67% 0 in 285.00 W/m2 unknown
14:14 84.2 °F 71.6 °F 29.7 in ENE 3.1 mph 6.8 mph 67% 0 in 874.00 W/m2 unknown
14:19 84.2 °F 71.6 °F 29.7 in ENE 3.7 mph 6.8 mph 66% 0 in 782.00 W/m2 unknown
14:24 84.2 °F 71.6 °F 29.7 in ESE 3.7 mph 5 mph 65% 0 in 283.00 W/m2 unknown
14:29 84.2 °F 69.8 °F 29.7 in ESE 3.7 mph 6.2 mph 66% 0 in 392.00 W/m2 unknown
14:34 84.2 °F 71.6 °F 29.7 in East 7.5 mph 10.6 mph 67% 0 in 854.00 W/m2 unknown
14:39 84.2 °F 71.6 °F 29.7 in East 6.8 mph 9.9 mph 66% 0 in 854.00 W/m2 unknown
14:44 84.2 °F 71.6 °F 29.7 in East 5 mph 6.8 mph 66% 0 in 817.00 W/m2 unknown
14:49 84.2 °F 71.6 °F 29.7 in ENE 5.6 mph 8.1 mph 66% 0 in 874.00 W/m2 unknown
14:54 84.2 °F 71.6 °F 29.7 in East 5.6 mph 8.1 mph 64% 0 in 874.00 W/m2 unknown
14:59 84.2 °F 69.8 °F 29.7 in East 6.2 mph 9.3 mph 62% 0 in 803.00 W/m2 unknown
15:04 84.2 °F 69.8 °F 29.7 in ENE 6.2 mph 8.7 mph 61% 0 in 679.00 W/m2 unknown
15:09 84.2 °F 69.8 °F 29.7 in East 3.7 mph 8.1 mph 60% 0 in 791.00 W/m2 unknown
15:14 86 °F 69.8 °F 29.7 in ENE 6.8 mph 9.3 mph 59% 0 in 784.00 W/m2 unknown
15:19 86 °F 68 °F 29.7 in East 6.8 mph 9.3 mph 56% 0 in 768.00 W/m2 unknown
15:24 86 °F 68 °F 29.7 in ESE 4.3 mph 8.1 mph 56% 0 in 745.00 W/m2 unknown
15:29 86 °F 68 °F 29.7 in ESE 6.2 mph 8.1 mph 55% 0 in 747.00 W/m2 unknown
15:34 86 °F 68 °F 29.7 in ESE 3.1 mph 8.1 mph 56% 0 in 733.00 W/m2 unknown
15:39 86 °F 68 °F 29.7 in SSE 4.3 mph 6.2 mph 54% 0 in 726.00 W/m2 unknown
15:44 86 °F 66.2 °F 29.7 in South 5.6 mph 8.1 mph 51% 0 in 717.00 W/m2 unknown
15:49 86 °F 66.2 °F 29.7 in South 5 mph 8.1 mph 50% 0 in 714.00 W/m2 unknown
15:54 86 °F 66.2 °F 29.7 in SSE 3.7 mph 6.2 mph 50% 0 in 708.00 W/m2 unknown
15:59 86 °F 64.4 °F 29.7 in ESE 3.7 mph 6.2 mph 49% 0 in 707.00 W/m2 unknown
16:04 87.8 °F 66.2 °F 29.7 in SE 3.7 mph 8.1 mph 51% 0 in 708.00 W/m2 unknown
16:09 87.8 °F 64.4 °F 29.7 in SSE 5 mph 8.1 mph 47% 0 in 687.00 W/m2 unknown
16:14 87.8 °F 64.4 °F 29.7 in South 6.2 mph 8.1 mph 45% 0 in 698.00 W/m2 unknown
16:19 87.8 °F 64.4 °F 29.7 in SSW 6.2 mph 8.1 mph 45% 0 in 700.00 W/m2 unknown
16:24 87.8 °F 62.6 °F 29.7 in South 4.3 mph 6.8 mph 44% 0 in 686.00 W/m2 unknown
16:29 87.8 °F 62.6 °F 29.7 in SSW 4.3 mph 6.2 mph 43% 0 in 686.00 W/m2 unknown
16:34 87.8 °F 62.6 °F 29.7 in SSW 5 mph 6.2 mph 42% 0 in 670.00 W/m2 unknown
16:39 87.8 °F 60.8 °F 29.7 in ESE 5 mph 8.1 mph 42% 0 in 668.00 W/m2 unknown
16:44 87.8 °F 60.8 °F 29.7 in SSE 5.6 mph 8.1 mph 41% 0 in 656.00 W/m2 unknown
16:49 87.8 °F 60.8 °F 29.7 in South 5 mph 6.8 mph 41% 0 in 504.00 W/m2 unknown
16:54 86 °F 60.8 °F 29.7 in South 3.1 mph 5 mph 42% 0 in 165.00 W/m2 unknown
16:59 86 °F 60.8 °F 29.7 in West 2.5 mph 3.7 mph 43% 0 in 383.00 W/m2 unknown
17:04 86 °F 62.6 °F 29.7 in WSW 3.7 mph 5 mph 44% 0 in 392.00 W/m2 unknown
17:09 86 °F 60.8 °F 29.7 in SW 3.1 mph 5 mph 43% 0 in 380.00 W/m2 unknown
17:14 86 °F 62.6 °F 29.7 in ESE 4.3 mph 5 mph 45% 0 in 257.00 W/m2 unknown
17:19 86 °F 62.6 °F 29.7 in ESE 4.3 mph 5 mph 45% 0 in 197.00 W/m2 unknown
17:24 86 °F 60.8 °F 29.7 in ESE 3.1 mph 5 mph 44% 0 in 211.00 W/m2 unknown
17:29 86 °F 62.6 °F 29.7 in ESE 3.1 mph 3.7 mph 46% 0 in 315.00 W/m2 unknown
17:34 86 °F 62.6 °F 29.7 in SSE 1.2 mph 3.7 mph 46% 0 in 541.00 W/m2 unknown
17:39 86 °F 62.6 °F 29.7 in SE 2.5 mph 3.7 mph 45% 0 in 534.00 W/m2 unknown
17:44 87.8 °F 62.6 °F 29.7 in SE 2.5 mph 3.7 mph 43% 0 in 466.00 W/m2 unknown
17:49 87.8 °F 60.8 °F 29.7 in SSE 1.9 mph 3.7 mph 43% 0 in 413.00 W/m2 unknown
17:54 87.8 °F 60.8 °F 29.7 in SW 3.1 mph 5 mph 41% 0 in 431.00 W/m2 unknown
17:59 87.8 °F 60.8 °F 29.6 in SSW 3.1 mph 5 mph 41% 0 in 401.00 W/m2 unknown
18:04 87.8 °F 60.8 °F 29.6 in SE 2.5 mph 5 mph 42% 0 in 376.00 W/m2 unknown
18:09 87.8 °F 60.8 °F 29.6 in South 2.5 mph 5 mph 43% 0 in 343.00 W/m2 unknown
18:14 86 °F 62.6 °F 29.6 in SSE 2.5 mph 5 mph 46% 0 in 327.00 W/m2 unknown
18:19 86 °F 62.6 °F 29.6 in SSE 3.7 mph 5 mph 45% 0 in 313.00 W/m2 unknown
18:24 86 °F 62.6 °F 29.6 in SSE 3.1 mph 5 mph 45% 0 in 304.00 W/m2 unknown
18:29 86 °F 62.6 °F 29.6 in SE 3.1 mph 5 mph 46% 0 in 278.00 W/m2 unknown
18:34 86 °F 64.4 °F 29.6 in SE 3.7 mph 5 mph 48% 0 in 294.00 W/m2 unknown
18:39 86 °F 64.4 °F 29.6 in SE 3.1 mph 5 mph 49% 0 in 279.00 W/m2 unknown
18:44 86 °F 64.4 °F 29.6 in ESE 2.5 mph 5 mph 49% 0 in 265.00 W/m2 unknown
18:49 86 °F 64.4 °F 29.6 in SE 2.5 mph 5 mph 50% 0 in 265.00 W/m2 unknown
18:54 86 °F 66.2 °F 29.6 in ESE 3.1 mph 5 mph 52% 0 in 223.00 W/m2 unknown
18:59 86 °F 66.2 °F 29.6 in SSE 5.6 mph 10.6 mph 53% 0 in 207.00 W/m2 unknown
19:04 86 °F 66.2 °F 29.6 in South 8.1 mph 13 mph 53% 0 in 86.00 W/m2 unknown
19:09 84.2 °F 62.6 °F 29.6 in SSW 7.5 mph 13 mph 46% 0 in 58.00 W/m2 unknown
19:14 84.2 °F 62.6 °F 29.6 in SSW 6.8 mph 13 mph 46% 0 in 62.00 W/m2 unknown
19:19 84.2 °F 59 °F 29.6 in SSW 7.5 mph 11.2 mph 42% 0 in 88.00 W/m2 unknown
19:24 84.2 °F 57.2 °F 29.6 in SSW 7.5 mph 11.8 mph 41% 0 in 90.00 W/m2 unknown
19:29 84.2 °F 57.2 °F 29.6 in South 6.8 mph 8.7 mph 41% 0 in 86.00 W/m2 unknown
19:34 84.2 °F 57.2 °F 29.6 in SSW 6.2 mph 8.1 mph 41% 0 in 86.00 W/m2 unknown
19:39 84.2 °F 57.2 °F 29.6 in SSW 6.2 mph 8.1 mph 42% 0 in 63.00 W/m2 unknown
19:44 82.4 °F 57.2 °F 29.6 in SSW 3.1 mph 6.8 mph 42% 0 in 56.00 W/m2 unknown
19:49 82.4 °F 57.2 °F 29.6 in SSE 1.9 mph 5 mph 43% 0 in 49.00 W/m2 unknown
19:54 82.4 °F 59 °F 29.6 in SE 1.9 mph 3.7 mph 44% 0 in 44.00 W/m2 unknown
19:59 82.4 °F 59 °F 29.6 in ESE 2.5 mph 3.7 mph 45% 0 in 39.00 W/m2 unknown
20:04 80.6 °F 59 °F 29.6 in ESE 2.5 mph 3.7 mph 47% 0 in 40.00 W/m2 unknown
20:09 80.6 °F 59 °F 29.6 in ESE 1.9 mph 3.7 mph 47% 0 in 40.00 W/m2 unknown
20:14 80.6 °F 59 °F 29.6 in SE 1.2 mph 3.1 mph 46% 0 in 42.00 W/m2 unknown
20:19 80.6 °F 57.2 °F 29.6 in South 1.2 mph 3.7 mph 45% 0 in 39.00 W/m2 unknown
20:24 80.6 °F 57.2 °F 29.6 in South 1.2 mph 3.1 mph 45% 0 in 28.00 W/m2 unknown
20:29 80.6 °F 57.2 °F 29.6 in SSE 1.9 mph 3.1 mph 46% 0 in 23.00 W/m2 unknown
20:34 80.6 °F 59 °F 29.6 in ESE 2.5 mph 3.7 mph 49% 0 in 19.00 W/m2 unknown
20:39 78.8 °F 59 °F 29.6 in ESE 2.5 mph 3.7 mph 50% 0 in 12.00 W/m2 unknown
20:44 78.8 °F 59 °F 29.6 in ESE 1.2 mph 3.1 mph 53% 0 in 7.00 W/m2 unknown
20:49 78.8 °F 59 °F 29.6 in ESE 1.2 mph 2.5 mph 53% 0 in 0.00 W/m2 unknown
20:54 78.8 °F 59 °F 29.6 in ESE 1.2 mph 2.5 mph 51% 0 in 0.00 W/m2 unknown
20:59 78.8 °F 59 °F 29.6 in ESE 2.5 mph 3.1 mph 52% 0 in 0.00 W/m2 unknown
21:04 77 °F 59 °F 29.6 in ESE 3.7 mph 5 mph 53% 0 in 0.00 W/m2 unknown
21:09 77 °F 57.2 °F 29.6 in East 3.1 mph 5 mph 53% 0 in 0.00 W/m2 unknown
21:14 77 °F 59 °F 29.6 in East 1.9 mph 3.7 mph 55% 0 in 0.00 W/m2 unknown
21:19 75.2 °F 59 °F 29.6 in East 1.9 mph 3.1 mph 55% 0 in 0.00 W/m2 unknown
21:24 75.2 °F 59 °F 29.6 in East 1.9 mph 3.7 mph 55% 0 in 0.00 W/m2 unknown
21:29 75.2 °F 57.2 °F 29.6 in East 2.5 mph 3.7 mph 54% 0 in 0.00 W/m2 unknown
21:34 75.2 °F 57.2 °F 29.6 in East 3.7 mph 5 mph 53% 0 in 0.00 W/m2 unknown
21:39 75.2 °F 57.2 °F 29.7 in East 5.6 mph 8.1 mph 53% 0 in 0.00 W/m2 unknown
21:44 75.2 °F 57.2 °F 29.7 in ENE 6.2 mph 8.1 mph 54% 0 in 0.00 W/m2 unknown
21:49 75.2 °F 60.8 °F 29.7 in NE 5.6 mph 11.2 mph 63% 0 in 0.00 W/m2 unknown
21:54 75.2 °F 64.4 °F 29.7 in ENE 5.6 mph 11.8 mph 69% 0 in 0.00 W/m2 unknown
21:59 75.2 °F 64.4 °F 29.7 in ENE 6.2 mph 11.8 mph 70% 0 in 0.00 W/m2 unknown
22:04 75.2 °F 64.4 °F 29.7 in ENE 7.5 mph 10.6 mph 71% 0 in 0.00 W/m2 unknown
22:09 75.2 °F 64.4 °F 29.7 in ENE 6.8 mph 9.9 mph 71% 0 in 0.00 W/m2 unknown
22:14 75.2 °F 66.2 °F 29.7 in ENE 6.2 mph 9.3 mph 72% 0 in 0.00 W/m2 unknown
22:19 75.2 °F 66.2 °F 29.7 in ENE 5 mph 8.7 mph 72% 0 in 0.00 W/m2 unknown
22:24 75.2 °F 64.4 °F 29.7 in ENE 6.2 mph 8.1 mph 72% 0 in 0.00 W/m2 unknown
22:29 75.2 °F 64.4 °F 29.7 in East 4.3 mph 8.1 mph 72% 0 in 0.00 W/m2 unknown
22:34 75.2 °F 64.4 °F 29.7 in East 5 mph 6.8 mph 72% 0 in 0.00 W/m2 unknown
22:39 73.4 °F 64.4 °F 29.7 in East 5 mph 6.8 mph 72% 0 in 0.00 W/m2 unknown
22:44 73.4 °F 64.4 °F 29.7 in ESE 5 mph 6.8 mph 72% 0 in 0.00 W/m2 unknown
22:49 73.4 °F 64.4 °F 29.7 in East 6.2 mph 8.1 mph 72% 0 in 0.00 W/m2 unknown
22:54 73.4 °F 64.4 °F 29.7 in East 6.2 mph 8.1 mph 72% 0 in 0.00 W/m2 unknown
22:59 73.4 °F 64.4 °F 29.7 in East 6.2 mph 9.3 mph 72% 0 in 0.00 W/m2 unknown
23:04 73.4 °F 62.6 °F 29.7 in East 6.2 mph 10.6 mph 71% 0 in 0.00 W/m2 unknown
23:09 73.4 °F 62.6 °F 29.7 in East 6.2 mph 9.9 mph 70% 0 in 0.00 W/m2 unknown
23:14 73.4 °F 62.6 °F 29.7 in East 5 mph 8.1 mph 69% 0 in 0.00 W/m2 unknown
23:19 73.4 °F 62.6 °F 29.7 in East 5.6 mph 8.7 mph 70% 0 in 0.00 W/m2 unknown
23:24 73.4 °F 62.6 °F 29.7 in East 6.8 mph 9.3 mph 69% 0 in 0.00 W/m2 unknown
23:29 73.4 °F 62.6 °F 29.7 in ENE 6.2 mph 8.7 mph 70% 0 in 0.00 W/m2 unknown
23:34 73.4 °F 62.6 °F 29.7 in East 5.6 mph 10.6 mph 70% 0 in 0.00 W/m2 unknown
23:39 73.4 °F 62.6 °F 29.7 in East 3.7 mph 5 mph 69% 0 in 0.00 W/m2 unknown
23:44 73.4 °F 62.6 °F 29.7 in East 5 mph 8.1 mph 70% 0 in 0.00 W/m2 unknown
23:49 73.4 °F 62.6 °F 29.7 in East 5.6 mph 8.1 mph 70% 0 in 0.00 W/m2 unknown
23:54 71.6 °F 62.6 °F 29.7 in East 5.6 mph 6.8 mph 70% 0 in 0.00 W/m2 unknown
23:59 71.6 °F 62.6 °F 29.7 in East 5.6 mph 8.1 mph 71% 0 in 0.00 W/m2 unknown
Stazione Meteorologica MeteoMincio Rivalta s/M (MN)
Con i complimenti di Weather Underground - 2 mb



METEO PILLOLE
La temperatura più alta
Death Valley -54m slm (Stati Uniti d'America)
Il 10 luglio 1913 la colonnina di mercurio raggiunse +56.7°C.
Share

Non seguire questo link o sarai bannato dal sito!